Estación Meteorológica Peña el Pijo (Robertgarden) [ 11/12/18 21:47:42 CET ]

Fecha Hora Presion(HPa) Temp (°C) Humedad % Rocio (°C) Viento ( m/s) Direccion Lluvia 1Hora(mm) Lluvia 24H(mm) LLuvia Total(mm)
2018-Sep-28 01:01:40 1016.600 10.9 86 8.6       1.55 356.38
2018-Sep-28 02:01:35 1016.100 10.2 86 7.9       1.55 356.38
2018-Sep-28 03:01:41 1015.500 9.5 87 7.4       1.55 356.38
2018-Sep-28 04:06:12 1014.800 8.9 88 7.0       1.55 356.38
2018-Sep-28 05:01:31 1014.400 8.4 88 6.5       0.51 356.38
2018-Sep-28 06:01:36 1013.700 8.3 89 6.6       0.51 356.38
2018-Sep-28 07:01:42 1013.800 7.2 89 5.5       0.51 356.38
2018-Sep-28 08:01:42 1013.800 7.1 89 5.4         356.38
2018-Sep-28 09:01:44 1014.000 7.2 90 5.7         356.38
2018-Sep-28 10:01:42 1014.200 13.4 92 12.1         356.38
2018-Sep-28 11:01:38 1014.100 18.9 75 14.3         356.38
2018-Sep-28 12:01:44 1013.800 22.9 55 13.3         356.38
2018-Sep-28 13:01:29 1013.300 25.4 45 12.6         356.38
2018-Sep-28 14:01:54 1012.600 24.9 42 11.1         356.38
2018-Sep-28 15:01:46 1011.900 25.9 41 11.6 3.1 NNE     356.38
2018-Sep-28 16:02:01 1011.400 27.5 38 11.9         356.38
2018-Sep-28 17:01:54 1011.100 27.2 37 11.2         356.38
2018-Sep-28 18:01:50 1010.600 25.8 39 10.8         356.38
2018-Sep-28 19:01:56 1010.800 22.3 46 10.0         356.38
2018-Sep-28 20:01:37 1010.900 18.7 56 9.7         356.38
2018-Sep-28 21:01:54 1011.500 16.6 58 8.3         356.38
2018-Sep-28 22:01:49 1012.200 13.5 67 7.5         356.38
2018-Sep-28 23:01:58 1012.000 11.9 74 7.4         356.38

Temperatura Máxima:27°    Temperatura Mínima:
Presión Máxima:1016.600 Hpa    Presión Mínima:1010.600 Hpa


Volver